Dalhart Municipal Airport


Codes: KDHT/DHT
Name: Dalhart Municipal Airport
City: Dalhart
Country: United States
Elevation: 3991 ft.
Wikipedia:

Photos at Dalhart Municipal Airport


   Photos courtesy of SpottingLog. You can add your own sightings and photos by signing up for a free trial today.



No photos found.

Weather at Dalhart Municipal Airport


Time (UTC)DescriptionTempratureWindCloud coverageVisibilityPressureHumidity
15-Apr-2024 18:00Few Clouds24°C27 mph, SW13%10000m1006hPa11%
15-Apr-2024 21:00Clear Sky26°C31 mph, SW0%10000m1001hPa8%
16-Apr-2024 00:00Clear Sky24°C18 mph, SW0%10000m997hPa9%
16-Apr-2024 03:00Broken Clouds17°C25 mph, W84%10000m1001hPa13%
16-Apr-2024 06:00Broken Clouds14°C18 mph, SW65%10000m1002hPa16%
16-Apr-2024 09:00Clear Sky12°C29 mph, W0%10000m1001hPa30%
16-Apr-2024 12:00Clear Sky12°C20 mph, W0%10000m1002hPa26%
16-Apr-2024 15:00Clear Sky18°C16 mph, W0%10000m1003hPa18%
16-Apr-2024 18:00Clear Sky24°C11 mph, NW0%10000m1002hPa15%
16-Apr-2024 21:00Clear Sky26°C18 mph, N3%10000m1001hPa14%
17-Apr-2024 00:00Clear Sky25°C7 mph, N7%10000m1002hPa16%
17-Apr-2024 03:00Broken Clouds18°C18 mph, NE71%10000m1008hPa34%
17-Apr-2024 06:00Scattered Clouds12°C9 mph, NE37%10000m1012hPa57%
17-Apr-2024 09:00Clear Sky10°C2 mph, E0%10000m1013hPa65%
17-Apr-2024 12:00Clear Sky9°C2 mph, SW0%10000m1014hPa65%
17-Apr-2024 15:00Clear Sky16°C7 mph, S0%10000m1014hPa40%
17-Apr-2024 18:00Clear Sky22°C16 mph, S0%10000m1011hPa27%
17-Apr-2024 21:00Clear Sky26°C13 mph, SW0%10000m1007hPa18%
18-Apr-2024 00:00Clear Sky26°C9 mph, SW0%10000m1005hPa14%
18-Apr-2024 03:00Clear Sky19°C13 mph, S0%10000m1007hPa21%
18-Apr-2024 06:00Clear Sky17°C9 mph, W0%10000m1008hPa17%
18-Apr-2024 09:00Clear Sky16°C11 mph, W0%10000m1008hPa22%
18-Apr-2024 12:00Clear Sky14°C18 mph, N1%10000m1011hPa30%
18-Apr-2024 15:00Few Clouds14°C22 mph, N12%10000m1015hPa61%
18-Apr-2024 18:00Clear Sky16°C20 mph, N10%10000m1016hPa48%
18-Apr-2024 21:00Clear Sky17°C16 mph, NE5%10000m1015hPa42%
19-Apr-2024 00:00Scattered Clouds14°C18 mph, NE26%10000m1016hPa51%
19-Apr-2024 03:00Scattered Clouds8°C20 mph, NE39%10000m1019hPa72%
19-Apr-2024 06:00Broken Clouds5°C16 mph, NE70%10000m1023hPa81%
19-Apr-2024 09:00Overcast Clouds4°C11 mph, E100%10000m1024hPa82%
19-Apr-2024 12:00Overcast Clouds5°C9 mph, NE100%10000m1023hPa76%
19-Apr-2024 15:00Overcast Clouds7°C7 mph, E100%10000m1023hPa64%
19-Apr-2024 18:00Overcast Clouds9°C9 mph, SE100%10000m1021hPa58%
19-Apr-2024 21:00Overcast Clouds12°C13 mph, SE100%10000m1018hPa51%
20-Apr-2024 00:00Overcast Clouds13°C11 mph, SE91%10000m1016hPa51%
20-Apr-2024 03:00Scattered Clouds10°C16 mph, SE42%10000m1017hPa67%
20-Apr-2024 06:00Scattered Clouds6°C11 mph, E32%10000m1020hPa80%
20-Apr-2024 09:00Light Rain5°C4 mph, E69%10000m1021hPa91%
20-Apr-2024 12:00Light Rain7°C11 mph, SE84%10000m1020hPa89%
20-Apr-2024 15:00Light Rain7°C13 mph, SE100%10000m1021hPa82%